FZAA

Ndjili International Airport

Kinshasa, Congo, Democratic Republic of
METAR FZAA 181400Z 36010KT 9999 SCT022 FEW030CB BKN100 28/23 Q1011 CB NOSIG
Observed Flight Rules
Jan-18 @ 14:00 UTC (an hour ago) Visual Flight Rules
Wind Visibility Clouds
360° at 10 knots 10,000+ meters
  • Scattered at 2,200' AGL
  • Few at 3,000' AGL
  • Broken at 10,000' AGL
Temperatures Readings
Current 28°C / 82°F
Dewpoint 23°C / 73°F
Humidity 74%
Altimeter 29.85" Hg
Pressure 1011 hPa
Elevation 312
METAR FZAA 181400Z 36010KT 9999 SCT022 FEW030CB BKN100 28/23 Q1011 CB NOSIG
Observed Flight Rules
Jan-18 @ 14:00 UTC
(an hour ago)
VFR
Wind Visibility
360° at 10 knots 10,000+ meters
Clouds
  • Scattered at 2,200' AGL
  • Few at 3,000' AGL
  • Broken at 10,000' AGL
Temperature Dewpoint
28°C / 82°F 23°C / 73°F
Humidity Altimeter Pressure
74% 29.85" Hg 1011 hPa